createdAt,value
2023-04-29T00:00:38.540Z,11.80
2023-04-29T00:05:40.452Z,12.07
2023-04-29T00:10:42.299Z,12.30
2023-04-29T00:15:43.984Z,12.15
2023-04-29T00:20:45.680Z,11.98
2023-04-29T00:25:47.446Z,11.52
2023-04-29T00:30:49.147Z,11.35
2023-04-29T00:35:51.206Z,11.68
2023-04-29T00:40:53.162Z,11.05
2023-04-29T00:45:54.823Z,11.57
2023-04-29T00:50:56.556Z,10.77
2023-04-29T00:56:00.650Z,10.88
2023-04-29T01:01:06.330Z,10.88
2023-04-29T01:06:38.899Z,10.82
2023-04-29T01:11:55.476Z,10.60
2023-04-29T01:17:01.126Z,10.15
2023-04-29T01:22:02.829Z,10.90
2023-04-29T01:27:33.364Z,11.30
2023-04-29T01:33:02.994Z,10.90
2023-04-29T01:38:26.381Z,11.30
2023-04-29T01:43:32.708Z,12.07
2023-04-29T01:48:34.448Z,11.52
2023-04-29T01:53:36.098Z,12.05
2023-04-29T01:58:37.765Z,12.38
2023-04-29T02:03:39.594Z,13.55
2023-04-29T02:08:41.353Z,12.15
2023-04-29T02:13:43.236Z,12.93
2023-04-29T02:18:44.926Z,12.63
2023-04-29T02:23:46.681Z,13.18
2023-04-29T02:28:48.468Z,13.73
2023-04-29T02:33:50.180Z,13.68
2023-04-29T02:38:54.065Z,13.18
2023-04-29T02:43:55.773Z,13.45
2023-04-29T02:48:57.457Z,14.10
2023-04-29T02:53:59.242Z,14.25
2023-04-29T02:59:00.960Z,13.60
2023-04-29T03:04:02.985Z,14.07
2023-04-29T03:09:04.763Z,14.13
2023-04-29T03:14:06.449Z,14.45
2023-04-29T03:19:08.271Z,13.70
2023-04-29T03:24:09.925Z,13.13
2023-04-29T03:29:11.621Z,15.30
2023-04-29T03:34:15.205Z,15.15
2023-04-29T03:39:17.427Z,14.52
2023-04-29T03:44:19.180Z,14.88
2023-04-29T03:49:20.929Z,15.18
2023-04-29T03:54:22.674Z,15.68
2023-04-29T03:59:24.354Z,16.38
2023-04-29T04:04:26.349Z,15.70
2023-04-29T04:09:28.281Z,16.35
2023-04-29T04:14:30.282Z,15.73
2023-04-29T04:19:32.761Z,14.98
2023-04-29T04:24:34.510Z,15.70
2023-04-29T04:29:36.225Z,15.00
2023-04-29T04:34:39.389Z,16.17
2023-04-29T04:39:41.095Z,15.73
2023-04-29T04:44:42.787Z,15.20
2023-04-29T04:49:44.596Z,14.13
2023-04-29T04:54:46.598Z,14.27
2023-04-29T04:59:48.276Z,14.13
2023-04-29T05:04:49.967Z,14.02
2023-04-29T05:09:51.981Z,13.45
2023-04-29T05:14:53.966Z,12.73
2023-04-29T05:19:55.821Z,12.30
2023-04-29T05:25:02.850Z,11.13
2023-04-29T05:30:05.034Z,9.30
2023-04-29T05:35:07.527Z,10.07
2023-04-29T05:40:10.320Z,8.88
2023-04-29T05:45:12.485Z,8.93
2023-04-29T05:50:14.191Z,8.80
2023-04-29T05:55:15.844Z,8.63
2023-04-29T06:00:17.542Z,9.30
2023-04-29T06:05:19.486Z,9.13
2023-04-29T06:10:21.316Z,9.90
2023-04-29T06:15:23.106Z,9.20
2023-04-29T06:20:24.849Z,9.07
2023-04-29T06:25:26.549Z,8.13
2023-04-29T06:30:28.291Z,7.85
2023-04-29T06:35:30.056Z,9.05
2023-04-29T06:40:31.741Z,8.23
2023-04-29T06:45:33.423Z,8.20
2023-04-29T06:50:36.305Z,8.27
2023-04-29T06:55:37.998Z,8.85
2023-04-29T07:00:39.707Z,7.82
2023-04-29T07:05:45.513Z,7.63
2023-04-29T07:10:55.231Z,7.63
2023-04-29T07:15:56.947Z,6.93
2023-04-29T07:21:02.169Z,6.65
2023-04-29T07:26:14.160Z,7.05
2023-04-29T07:31:16.668Z,7.25
2023-04-29T07:36:18.549Z,6.72
2023-04-29T07:41:20.241Z,7.00
2023-04-29T07:46:22.091Z,6.80
2023-04-29T07:51:23.892Z,6.90
2023-04-29T07:56:25.998Z,8.32
2023-04-29T08:01:28.416Z,8.77
2023-04-29T08:06:30.765Z,8.73
2023-04-29T08:11:32.519Z,10.13
2023-04-29T08:16:34.492Z,10.18
2023-04-29T08:21:36.329Z,11.50
2023-04-29T08:26:39.851Z,12.32
2023-04-29T08:31:41.598Z,12.00
2023-04-29T08:36:43.881Z,10.95
2023-04-29T08:41:49.380Z,9.48
2023-04-29T08:46:52.490Z,9.25
2023-04-29T08:51:54.296Z,10.20
2023-04-29T08:56:58.100Z,10.38
2023-04-29T09:02:00.794Z,9.32
2023-04-29T09:07:04.129Z,8.63
2023-04-29T09:12:06.690Z,8.38
2023-04-29T09:17:08.389Z,8.82
2023-04-29T09:22:11.566Z,8.77
2023-04-29T09:27:27.558Z,8.85
2023-04-29T09:32:29.383Z,9.63
2023-04-29T09:37:31.464Z,10.38
2023-04-29T09:42:43.336Z,9.50
2023-04-29T09:47:45.375Z,9.55
2023-04-29T09:52:48.068Z,7.95
2023-04-29T09:57:49.778Z,6.80
2023-04-29T10:02:54.087Z,7.57
2023-04-29T10:07:58.019Z,8.35
2023-04-29T10:13:01.744Z,7.60
2023-04-29T10:18:33.982Z,7.57
2023-04-29T10:23:37.383Z,6.82
2023-04-29T10:28:40.470Z,6.82
2023-04-29T10:33:45.880Z,7.07
2023-04-29T10:38:52.716Z,7.68
2023-04-29T10:43:59.527Z,7.70
2023-04-29T10:49:03.618Z,8.10
2023-04-29T10:54:09.862Z,8.23
2023-04-29T10:59:18.428Z,9.40
2023-04-29T11:04:23.507Z,9.98
2023-04-29T11:09:30.194Z,12.10
2023-04-29T11:14:41.086Z,13.50
2023-04-29T11:19:51.001Z,12.13
2023-04-29T11:24:56.433Z,14.00
2023-04-29T11:29:59.555Z,13.80
2023-04-29T11:35:12.313Z,14.13
2023-04-29T11:40:15.423Z,13.80
2023-04-29T11:45:20.576Z,14.25
2023-04-29T11:50:22.853Z,13.30
2023-04-29T11:55:25.716Z,15.07
2023-04-29T12:00:27.800Z,15.45
2023-04-29T12:05:30.222Z,15.80
2023-04-29T12:10:32.642Z,14.15
2023-04-29T12:15:34.505Z,13.88
2023-04-29T12:20:36.653Z,14.30
2023-04-29T12:25:38.373Z,13.80
2023-04-29T12:30:40.123Z,14.25
2023-04-29T12:35:41.790Z,14.82
2023-04-29T12:40:44.668Z,12.35
2023-04-29T12:45:46.456Z,11.27
2023-04-29T12:50:52.638Z,10.50
2023-04-29T12:55:54.481Z,9.63
2023-04-29T13:00:56.477Z,8.70
2023-04-29T13:05:59.102Z,9.48
2023-04-29T13:11:01.097Z,8.18
2023-04-29T13:16:03.178Z,9.55
2023-04-29T13:21:04.943Z,10.27
2023-04-29T13:26:08.829Z,10.80
2023-04-29T13:31:10.651Z,9.80
2023-04-29T13:36:12.347Z,10.77
2023-04-29T13:41:16.766Z,10.73
2023-04-29T13:46:22.427Z,10.70
2023-04-29T13:52:02.255Z,10.35
2023-04-29T14:06:56.252Z,9.02
2023-04-29T14:11:58.019Z,8.60
2023-04-29T14:17:01.191Z,9.38
2023-04-29T14:22:03.283Z,9.00
2023-04-29T14:27:05.135Z,9.60
2023-04-29T14:32:07.423Z,8.80
2023-04-29T14:37:09.154Z,7.68
2023-04-29T14:42:11.053Z,7.55
2023-04-29T14:47:12.759Z,7.75
2023-04-29T14:52:14.466Z,8.05
2023-04-29T14:57:16.223Z,7.78
2023-04-29T15:02:17.976Z,9.00
2023-04-29T15:07:20.156Z,8.88
2023-04-29T15:12:22.304Z,7.88
2023-04-29T15:17:24.081Z,8.32
2023-04-29T15:22:25.854Z,7.93
2023-04-29T15:27:29.133Z,7.03
2023-04-29T15:32:35.914Z,8.23
2023-04-29T15:37:37.695Z,8.00
2023-04-29T15:42:39.423Z,7.32
2023-04-29T15:47:41.267Z,8.27
2023-04-29T15:52:42.996Z,8.30
2023-04-29T15:57:44.700Z,8.70
2023-04-29T16:02:46.547Z,7.75
2023-04-29T16:07:48.313Z,7.30
2023-04-29T16:12:50.040Z,7.38
2023-04-29T16:17:52.369Z,7.93
2023-04-29T16:22:54.364Z,7.72
2023-04-29T16:27:56.523Z,7.80
2023-04-29T16:32:58.238Z,7.72
2023-04-29T16:38:00.001Z,7.65
2023-04-29T16:43:01.784Z,7.47
2023-04-29T16:48:04.998Z,7.18
2023-04-29T16:53:06.729Z,6.82
2023-04-29T16:58:08.412Z,7.70
2023-04-29T17:03:10.455Z,7.38
2023-04-29T17:08:13.468Z,6.80
2023-04-29T17:13:15.448Z,8.20
2023-04-29T17:18:17.200Z,8.00
2023-04-29T17:23:18.915Z,7.40
2023-04-29T17:28:20.796Z,7.47
2023-04-29T17:33:22.570Z,9.93
2023-04-29T17:38:24.445Z,8.55
2023-04-29T17:43:27.256Z,8.60
2023-04-29T17:48:28.956Z,8.25
2023-04-29T17:53:33.022Z,9.18
2023-04-29T17:58:34.723Z,9.45
2023-04-29T18:03:36.418Z,8.55
2023-04-29T18:08:38.236Z,9.52
2023-04-29T18:13:40.917Z,9.77
2023-04-29T18:18:43.164Z,9.55
2023-04-29T18:23:44.990Z,9.75
2023-04-29T18:28:47.746Z,9.38
2023-04-29T18:33:49.476Z,10.02
2023-04-29T18:38:51.355Z,10.98
2023-04-29T18:43:53.252Z,10.93
2023-04-29T18:48:54.971Z,10.48
2023-04-29T18:53:56.780Z,10.65
2023-04-29T18:58:58.795Z,11.75
2023-04-29T19:04:04.401Z,10.57
2023-04-29T19:09:06.089Z,10.07
2023-04-29T19:14:07.845Z,10.63
2023-04-29T19:19:09.871Z,9.77
2023-04-29T19:24:11.698Z,10.02
2023-04-29T19:29:13.390Z,11.13
2023-04-29T19:34:15.188Z,11.13
2023-04-29T19:39:18.674Z,10.00
2023-04-29T19:44:20.476Z,10.52
2023-04-29T19:49:22.206Z,9.63
2023-04-29T19:54:23.905Z,9.43
2023-04-29T19:59:26.332Z,10.10
2023-04-29T20:04:28.086Z,9.45
2023-04-29T20:09:30.796Z,8.85
2023-04-29T20:14:32.900Z,9.18
2023-04-29T20:19:34.840Z,9.25
2023-04-29T20:24:36.613Z,9.38
2023-04-29T20:29:38.354Z,8.32
2023-04-29T20:34:40.047Z,8.48
2023-04-29T20:39:41.807Z,9.13
2023-04-29T20:44:43.587Z,9.57
2023-04-29T20:49:45.315Z,9.15
2023-04-29T20:54:47.022Z,9.57
2023-04-29T20:59:49.018Z,10.07
2023-04-29T21:04:50.902Z,8.80
2023-04-29T21:09:52.829Z,9.43
2023-04-29T21:14:54.660Z,10.70
2023-04-29T21:19:56.752Z,9.75
2023-04-29T21:24:58.477Z,9.95
2023-04-29T21:30:00.237Z,9.38
2023-04-29T21:35:02.307Z,8.80
2023-04-29T21:40:04.659Z,9.38
2023-04-29T21:45:07.245Z,9.20
2023-04-29T21:50:10.007Z,8.70
2023-04-29T21:55:11.707Z,8.77
2023-04-29T22:00:39.931Z,9.02
2023-04-29T22:05:41.751Z,9.05
2023-04-29T22:10:43.647Z,8.77
2023-04-29T22:15:45.512Z,8.85
2023-04-29T22:20:47.297Z,8.05
2023-04-29T22:25:49.120Z,7.93
2023-04-29T22:30:50.951Z,7.28
2023-04-29T22:35:52.669Z,8.30
2023-04-29T22:40:54.370Z,8.10
2023-04-29T22:45:56.831Z,8.02
2023-04-29T22:50:59.437Z,8.45
2023-04-29T22:56:02.081Z,8.63
2023-04-29T23:01:03.815Z,9.13
2023-04-29T23:06:06.583Z,8.45
2023-04-29T23:11:08.464Z,9.20
2023-04-29T23:16:11.063Z,9.75
2023-04-29T23:21:12.875Z,9.23
2023-04-29T23:26:14.544Z,9.43
2023-04-29T23:31:16.487Z,8.65
2023-04-29T23:36:20.611Z,9.23
2023-04-29T23:41:22.346Z,9.30
2023-04-29T23:46:25.372Z,9.57
2023-04-29T23:51:27.129Z,9.07
2023-04-29T23:56:29.118Z,9.73
